sensor_id;sensor_type;location;lat;lon;timestamp;P1;durP1;ratioP1;P2;durP2;ratioP2
45338;SDS011;31071;51.478;5.710;2023-08-06T00:00:48;7.30;;;4.20;;
45338;SDS011;31071;51.478;5.710;2023-08-06T00:03:14;6.95;;;4.85;;
45338;SDS011;31071;51.478;5.710;2023-08-06T00:05:43;6.00;;;5.00;;
45338;SDS011;31071;51.478;5.710;2023-08-06T00:08:12;9.43;;;4.90;;
45338;SDS011;31071;51.478;5.710;2023-08-06T00:10:39;7.97;;;5.22;;
45338;SDS011;31071;51.478;5.710;2023-08-06T00:13:05;7.28;;;5.38;;
45338;SDS011;31071;51.478;5.710;2023-08-06T00:15:31;5.18;;;4.68;;
45338;SDS011;31071;51.478;5.710;2023-08-06T00:17:56;7.53;;;4.90;;
45338;SDS011;31071;51.478;5.710;2023-08-06T00:20:22;6.50;;;4.35;;
45338;SDS011;31071;51.478;5.710;2023-08-06T00:22:48;7.90;;;4.55;;
45338;SDS011;31071;51.478;5.710;2023-08-06T00:25:16;5.50;;;4.45;;
45338;SDS011;31071;51.478;5.710;2023-08-06T00:27:42;5.07;;;4.28;;
45338;SDS011;31071;51.478;5.710;2023-08-06T00:30:07;5.25;;;4.50;;
45338;SDS011;31071;51.478;5.710;2023-08-06T00:32:33;6.55;;;4.70;;
45338;SDS011;31071;51.478;5.710;2023-08-06T00:34:59;9.07;;;4.53;;
45338;SDS011;31071;51.478;5.710;2023-08-06T00:37:24;5.63;;;4.68;;
45338;SDS011;31071;51.478;5.710;2023-08-06T00:39:50;8.10;;;4.97;;
45338;SDS011;31071;51.478;5.710;2023-08-06T00:42:16;7.07;;;5.05;;
45338;SDS011;31071;51.478;5.710;2023-08-06T00:44:45;7.47;;;5.30;;
45338;SDS011;31071;51.478;5.710;2023-08-06T00:47:11;7.93;;;4.88;;
45338;SDS011;31071;51.478;5.710;2023-08-06T00:49:37;6.15;;;5.40;;
45338;SDS011;31071;51.478;5.710;2023-08-06T00:52:03;9.98;;;4.80;;
45338;SDS011;31071;51.478;5.710;2023-08-06T00:54:30;15.90;;;5.88;;
45338;SDS011;31071;51.478;5.710;2023-08-06T00:56:56;6.85;;;5.53;;
45338;SDS011;31071;51.478;5.710;2023-08-06T00:59:24;7.10;;;5.50;;
45338;SDS011;31071;51.478;5.710;2023-08-06T01:01:49;8.60;;;5.68;;
45338;SDS011;31071;51.478;5.710;2023-08-06T01:04:16;9.05;;;5.15;;
45338;SDS011;31071;51.478;5.710;2023-08-06T01:06:48;9.32;;;5.60;;
45338;SDS011;31071;51.478;5.710;2023-08-06T01:12:18;6.75;;;5.03;;
45338;SDS011;31071;51.478;5.710;2023-08-06T01:15:13;8.52;;;5.25;;
45338;SDS011;31071;51.478;5.710;2023-08-06T01:17:43;9.02;;;5.53;;
45338;SDS011;31071;51.478;5.710;2023-08-06T01:20:10;6.93;;;5.15;;
45338;SDS011;31071;51.478;5.710;2023-08-06T01:22:36;10.55;;;5.32;;
45338;SDS011;31071;51.478;5.710;2023-08-06T01:25:02;7.30;;;5.38;;
45338;SDS011;31071;51.478;5.710;2023-08-06T01:27:44;7.18;;;5.90;;
45338;SDS011;31071;51.478;5.710;2023-08-06T01:30:14;9.15;;;5.57;;
45338;SDS011;31071;51.478;5.710;2023-08-06T01:32:44;6.72;;;5.38;;
45338;SDS011;31071;51.478;5.710;2023-08-06T01:35:11;8.88;;;5.65;;
45338;SDS011;31071;51.478;5.710;2023-08-06T01:37:39;9.18;;;5.10;;
45338;SDS011;31071;51.478;5.710;2023-08-06T01:40:07;7.63;;;5.35;;
45338;SDS011;31071;51.478;5.710;2023-08-06T01:42:36;9.40;;;5.82;;
45338;SDS011;31071;51.478;5.710;2023-08-06T01:45:03;6.65;;;5.20;;
45338;SDS011;31071;51.478;5.710;2023-08-06T01:47:29;10.13;;;5.57;;
45338;SDS011;31071;51.478;5.710;2023-08-06T01:49:54;11.98;;;5.28;;
45338;SDS011;31071;51.478;5.710;2023-08-06T01:52:20;13.40;;;5.32;;
45338;SDS011;31071;51.478;5.710;2023-08-06T01:54:46;8.13;;;5.40;;
45338;SDS011;31071;51.478;5.710;2023-08-06T01:57:12;8.18;;;5.63;;
45338;SDS011;31071;51.478;5.710;2023-08-06T01:59:38;11.95;;;5.72;;
45338;SDS011;31071;51.478;5.710;2023-08-06T02:02:03;13.40;;;5.70;;
45338;SDS011;31071;51.478;5.710;2023-08-06T02:04:29;11.13;;;5.35;;
45338;SDS011;31071;51.478;5.710;2023-08-06T02:06:55;10.38;;;5.38;;
45338;SDS011;31071;51.478;5.710;2023-08-06T02:09:21;7.53;;;5.45;;
45338;SDS011;31071;51.478;5.710;2023-08-06T02:11:46;8.65;;;5.25;;
45338;SDS011;31071;51.478;5.710;2023-08-06T02:14:12;13.95;;;5.70;;
45338;SDS011;31071;51.478;5.710;2023-08-06T02:16:38;10.77;;;5.05;;
45338;SDS011;31071;51.478;5.710;2023-08-06T02:19:04;7.45;;;5.40;;
45338;SDS011;31071;51.478;5.710;2023-08-06T02:21:35;7.05;;;5.28;;
45338;SDS011;31071;51.478;5.710;2023-08-06T02:24:13;10.88;;;5.10;;
45338;SDS011;31071;51.478;5.710;2023-08-06T02:26:53;9.25;;;5.47;;
45338;SDS011;31071;51.478;5.710;2023-08-06T02:29:20;9.90;;;5.65;;
45338;SDS011;31071;51.478;5.710;2023-08-06T02:31:49;7.22;;;4.70;;
45338;SDS011;31071;51.478;5.710;2023-08-06T02:34:17;16.52;;;6.15;;
45338;SDS011;31071;51.478;5.710;2023-08-06T02:36:43;8.80;;;5.22;;
45338;SDS011;31071;51.478;5.710;2023-08-06T02:39:12;8.77;;;5.15;;
45338;SDS011;31071;51.478;5.710;2023-08-06T02:41:41;7.20;;;5.15;;
45338;SDS011;31071;51.478;5.710;2023-08-06T02:44:09;6.47;;;4.70;;
45338;SDS011;31071;51.478;5.710;2023-08-06T02:46:35;10.55;;;4.70;;
45338;SDS011;31071;51.478;5.710;2023-08-06T02:49:01;6.68;;;4.95;;
45338;SDS011;31071;51.478;5.710;2023-08-06T02:51:26;10.20;;;4.85;;
45338;SDS011;31071;51.478;5.710;2023-08-06T02:53:52;13.00;;;5.10;;
45338;SDS011;31071;51.478;5.710;2023-08-06T02:56:19;8.00;;;5.20;;
45338;SDS011;31071;51.478;5.710;2023-08-06T02:58:44;9.82;;;5.15;;
45338;SDS011;31071;51.478;5.710;2023-08-06T03:01:10;5.60;;;4.90;;
45338;SDS011;31071;51.478;5.710;2023-08-06T03:03:36;13.68;;;5.20;;
45338;SDS011;31071;51.478;5.710;2023-08-06T03:06:01;10.80;;;5.10;;
45338;SDS011;31071;51.478;5.710;2023-08-06T03:08:28;8.40;;;4.90;;
45338;SDS011;31071;51.478;5.710;2023-08-06T03:10:53;9.68;;;4.80;;
45338;SDS011;31071;51.478;5.710;2023-08-06T03:13:20;6.57;;;4.88;;
45338;SDS011;31071;51.478;5.710;2023-08-06T03:15:53;10.95;;;4.50;;
45338;SDS011;31071;51.478;5.710;2023-08-06T03:18:19;9.57;;;5.07;;
45338;SDS011;31071;51.478;5.710;2023-08-06T03:20:45;7.68;;;4.78;;
45338;SDS011;31071;51.478;5.710;2023-08-06T03:23:11;7.75;;;4.70;;
45338;SDS011;31071;51.478;5.710;2023-08-06T03:25:37;7.53;;;4.88;;
45338;SDS011;31071;51.478;5.710;2023-08-06T03:28:02;7.22;;;5.05;;
45338;SDS011;31071;51.478;5.710;2023-08-06T03:30:28;9.23;;;5.13;;
45338;SDS011;31071;51.478;5.710;2023-08-06T03:32:54;7.15;;;4.40;;
45338;SDS011;31071;51.478;5.710;2023-08-06T03:35:19;7.18;;;5.00;;
45338;SDS011;31071;51.478;5.710;2023-08-06T03:37:45;7.40;;;4.63;;
45338;SDS011;31071;51.478;5.710;2023-08-06T03:40:11;6.38;;;5.03;;
45338;SDS011;31071;51.478;5.710;2023-08-06T03:42:37;5.80;;;4.55;;
45338;SDS011;31071;51.478;5.710;2023-08-06T03:45:02;8.80;;;4.43;;
45338;SDS011;31071;51.478;5.710;2023-08-06T03:47:28;11.70;;;4.47;;
45338;SDS011;31071;51.478;5.710;2023-08-06T03:49:54;8.65;;;4.78;;
45338;SDS011;31071;51.478;5.710;2023-08-06T03:52:19;8.27;;;4.43;;
45338;SDS011;31071;51.478;5.710;2023-08-06T03:54:45;7.72;;;4.63;;
45338;SDS011;31071;51.478;5.710;2023-08-06T03:57:11;6.00;;;4.57;;
45338;SDS011;31071;51.478;5.710;2023-08-06T03:59:37;6.97;;;4.63;;
45338;SDS011;31071;51.478;5.710;2023-08-06T04:02:02;4.85;;;4.32;;
45338;SDS011;31071;51.478;5.710;2023-08-06T04:04:28;9.48;;;4.88;;
45338;SDS011;31071;51.478;5.710;2023-08-06T04:06:54;6.78;;;4.82;;
45338;SDS011;31071;51.478;5.710;2023-08-06T04:09:19;9.73;;;5.20;;
45338;SDS011;31071;51.478;5.710;2023-08-06T04:11:45;12.57;;;5.80;;
45338;SDS011;31071;51.478;5.710;2023-08-06T04:14:11;11.32;;;5.60;;
45338;SDS011;31071;51.478;5.710;2023-08-06T04:16:37;7.95;;;5.57;;
45338;SDS011;31071;51.478;5.710;2023-08-06T04:19:11;9.07;;;5.97;;
45338;SDS011;31071;51.478;5.710;2023-08-06T04:21:37;12.70;;;5.68;;
45338;SDS011;31071;51.478;5.710;2023-08-06T04:24:02;11.07;;;5.45;;
45338;SDS011;31071;51.478;5.710;2023-08-06T04:26:28;8.20;;;5.32;;
45338;SDS011;31071;51.478;5.710;2023-08-06T04:28:54;5.43;;;4.65;;
45338;SDS011;31071;51.478;5.710;2023-08-06T04:31:19;9.20;;;5.03;;
45338;SDS011;31071;51.478;5.710;2023-08-06T04:33:46;6.95;;;5.50;;
45338;SDS011;31071;51.478;5.710;2023-08-06T04:36:11;9.05;;;5.10;;
45338;SDS011;31071;51.478;5.710;2023-08-06T04:38:37;7.35;;;5.15;;
45338;SDS011;31071;51.478;5.710;2023-08-06T04:41:03;7.25;;;4.78;;
45338;SDS011;31071;51.478;5.710;2023-08-06T04:43:29;8.20;;;5.35;;
45338;SDS011;31071;51.478;5.710;2023-08-06T04:45:55;8.20;;;6.00;;
45338;SDS011;31071;51.478;5.710;2023-08-06T04:48:21;8.35;;;5.63;;
45338;SDS011;31071;51.478;5.710;2023-08-06T04:50:48;8.45;;;5.72;;
45338;SDS011;31071;51.478;5.710;2023-08-06T04:53:14;7.82;;;6.38;;
45338;SDS011;31071;51.478;5.710;2023-08-06T04:55:41;8.60;;;5.63;;
45338;SDS011;31071;51.478;5.710;2023-08-06T04:58:07;7.95;;;6.00;;
45338;SDS011;31071;51.478;5.710;2023-08-06T05:00:34;8.45;;;5.70;;
45338;SDS011;31071;51.478;5.710;2023-08-06T05:02:59;13.32;;;6.38;;
45338;SDS011;31071;51.478;5.710;2023-08-06T05:05:26;13.35;;;6.60;;
45338;SDS011;31071;51.478;5.710;2023-08-06T05:07:53;10.35;;;5.82;;
45338;SDS011;31071;51.478;5.710;2023-08-06T05:10:20;7.85;;;5.63;;
45338;SDS011;31071;51.478;5.710;2023-08-06T05:12:49;10.82;;;5.97;;
45338;SDS011;31071;51.478;5.710;2023-08-06T05:15:17;9.20;;;5.88;;
45338;SDS011;31071;51.478;5.710;2023-08-06T05:17:46;7.60;;;5.60;;
45338;SDS011;31071;51.478;5.710;2023-08-06T05:20:12;10.18;;;5.90;;
45338;SDS011;31071;51.478;5.710;2023-08-06T05:22:38;8.93;;;6.10;;
45338;SDS011;31071;51.478;5.710;2023-08-06T05:25:03;7.53;;;6.22;;
45338;SDS011;31071;51.478;5.710;2023-08-06T05:27:29;10.48;;;6.53;;
45338;SDS011;31071;51.478;5.710;2023-08-06T05:29:55;10.70;;;6.65;;
45338;SDS011;31071;51.478;5.710;2023-08-06T05:32:21;11.02;;;6.50;;
45338;SDS011;31071;51.478;5.710;2023-08-06T05:34:47;10.18;;;6.90;;
45338;SDS011;31071;51.478;5.710;2023-08-06T05:37:13;9.32;;;6.18;;
45338;SDS011;31071;51.478;5.710;2023-08-06T05:39:38;10.63;;;7.15;;
45338;SDS011;31071;51.478;5.710;2023-08-06T05:42:04;10.88;;;7.30;;
45338;SDS011;31071;51.478;5.710;2023-08-06T05:44:30;12.85;;;8.00;;
45338;SDS011;31071;51.478;5.710;2023-08-06T05:46:57;12.95;;;8.30;;
45338;SDS011;31071;51.478;5.710;2023-08-06T05:49:22;10.95;;;8.35;;
45338;SDS011;31071;51.478;5.710;2023-08-06T05:51:49;13.60;;;8.80;;
45338;SDS011;31071;51.478;5.710;2023-08-06T05:54:18;11.48;;;9.32;;
45338;SDS011;31071;51.478;5.710;2023-08-06T05:56:44;12.80;;;10.15;;
45338;SDS011;31071;51.478;5.710;2023-08-06T05:59:11;15.80;;;10.40;;
45338;SDS011;31071;51.478;5.710;2023-08-06T06:01:37;11.80;;;9.70;;
45338;SDS011;31071;51.478;5.710;2023-08-06T06:04:02;14.63;;;10.88;;
45338;SDS011;31071;51.478;5.710;2023-08-06T06:06:28;14.00;;;10.25;;
45338;SDS011;31071;51.478;5.710;2023-08-06T06:08:54;13.10;;;10.70;;
45338;SDS011;31071;51.478;5.710;2023-08-06T06:11:20;13.13;;;9.85;;
45338;SDS011;31071;51.478;5.710;2023-08-06T06:13:47;12.13;;;10.13;;
45338;SDS011;31071;51.478;5.710;2023-08-06T06:16:17;15.57;;;9.57;;
45338;SDS011;31071;51.478;5.710;2023-08-06T06:18:47;11.35;;;9.32;;
45338;SDS011;31071;51.478;5.710;2023-08-06T06:21:14;11.57;;;9.38;;
45338;SDS011;31071;51.478;5.710;2023-08-06T06:23:39;12.60;;;8.10;;
45338;SDS011;31071;51.478;5.710;2023-08-06T06:26:07;14.43;;;9.10;;
45338;SDS011;31071;51.478;5.710;2023-08-06T06:28:34;13.30;;;8.82;;
45338;SDS011;31071;51.478;5.710;2023-08-06T06:31:00;10.60;;;8.18;;
45338;SDS011;31071;51.478;5.710;2023-08-06T06:33:29;9.52;;;7.20;;
45338;SDS011;31071;51.478;5.710;2023-08-06T06:35:55;10.35;;;7.93;;
45338;SDS011;31071;51.478;5.710;2023-08-06T06:38:22;12.15;;;7.97;;
45338;SDS011;31071;51.478;5.710;2023-08-06T06:40:54;9.45;;;7.90;;
45338;SDS011;31071;51.478;5.710;2023-08-06T06:43:23;14.57;;;8.38;;
45338;SDS011;31071;51.478;5.710;2023-08-06T06:45:56;9.38;;;8.48;;
45338;SDS011;31071;51.478;5.710;2023-08-06T06:48:27;13.10;;;8.30;;
45338;SDS011;31071;51.478;5.710;2023-08-06T06:51:01;16.77;;;8.48;;
45338;SDS011;31071;51.478;5.710;2023-08-06T06:53:27;9.77;;;8.50;;
45338;SDS011;31071;51.478;5.710;2023-08-06T06:56:04;10.05;;;7.93;;
45338;SDS011;31071;51.478;5.710;2023-08-06T06:58:50;10.52;;;8.02;;
45338;SDS011;31071;51.478;5.710;2023-08-06T07:01:17;13.73;;;7.72;;
45338;SDS011;31071;51.478;5.710;2023-08-06T07:03:48;8.65;;;6.82;;
45338;SDS011;31071;51.478;5.710;2023-08-06T07:06:23;9.73;;;7.00;;
45338;SDS011;31071;51.478;5.710;2023-08-06T07:08:48;13.13;;;7.50;;
45338;SDS011;31071;51.478;5.710;2023-08-06T07:11:14;12.23;;;7.28;;
45338;SDS011;31071;51.478;5.710;2023-08-06T07:13:41;8.82;;;6.95;;
45338;SDS011;31071;51.478;5.710;2023-08-06T07:16:06;7.05;;;6.30;;
45338;SDS011;31071;51.478;5.710;2023-08-06T07:18:32;9.90;;;6.97;;
45338;SDS011;31071;51.478;5.710;2023-08-06T07:20:57;7.93;;;7.10;;
45338;SDS011;31071;51.478;5.710;2023-08-06T07:23:23;11.82;;;6.60;;
45338;SDS011;31071;51.478;5.710;2023-08-06T07:25:50;11.90;;;7.25;;
45338;SDS011;31071;51.478;5.710;2023-08-06T07:28:16;12.93;;;8.23;;
45338;SDS011;31071;51.478;5.710;2023-08-06T07:30:42;9.43;;;8.15;;
45338;SDS011;31071;51.478;5.710;2023-08-06T07:33:09;9.75;;;8.02;;
45338;SDS011;31071;51.478;5.710;2023-08-06T07:35:35;9.98;;;7.07;;
45338;SDS011;31071;51.478;5.710;2023-08-06T07:38:01;8.82;;;6.07;;
45338;SDS011;31071;51.478;5.710;2023-08-06T07:40:27;9.13;;;5.43;;
45338;SDS011;31071;51.478;5.710;2023-08-06T07:42:53;6.25;;;4.20;;
45338;SDS011;31071;51.478;5.710;2023-08-06T07:45:19;4.93;;;4.18;;
45338;SDS011;31071;51.478;5.710;2023-08-06T07:47:44;6.72;;;4.10;;
45338;SDS011;31071;51.478;5.710;2023-08-06T07:50:10;9.02;;;4.70;;
45338;SDS011;31071;51.478;5.710;2023-08-06T07:52:36;7.03;;;4.65;;
45338;SDS011;31071;51.478;5.710;2023-08-06T07:55:02;2.97;;;2.55;;
45338;SDS011;31071;51.478;5.710;2023-08-06T07:57:33;3.00;;;2.10;;
45338;SDS011;31071;51.478;5.710;2023-08-06T07:59:59;2.55;;;2.30;;
45338;SDS011;31071;51.478;5.710;2023-08-06T08:02:25;2.85;;;1.67;;
45338;SDS011;31071;51.478;5.710;2023-08-06T08:04:51;1.80;;;1.70;;
45338;SDS011;31071;51.478;5.710;2023-08-06T08:07:26;1.70;;;1.60;;
45338;SDS011;31071;51.478;5.710;2023-08-06T08:09:55;1.20;;;1.10;;
45338;SDS011;31071;51.478;5.710;2023-08-06T08:12:24;1.17;;;1.08;;
45338;SDS011;31071;51.478;5.710;2023-08-06T08:14:49;0.90;;;0.90;;
45338;SDS011;31071;51.478;5.710;2023-08-06T08:17:17;1.55;;;0.70;;
45338;SDS011;31071;51.478;5.710;2023-08-06T08:19:43;0.93;;;0.90;;
45338;SDS011;31071;51.478;5.710;2023-08-06T08:22:08;0.95;;;0.95;;
45338;SDS011;31071;51.478;5.710;2023-08-06T08:24:34;1.13;;;1.13;;
45338;SDS011;31071;51.478;5.710;2023-08-06T08:27:01;2.75;;;1.58;;
45338;SDS011;31071;51.478;5.710;2023-08-06T08:29:30;1.70;;;1.60;;
45338;SDS011;31071;51.478;5.710;2023-08-06T08:31:59;2.85;;;2.20;;
45338;SDS011;31071;51.478;5.710;2023-08-06T08:34:26;2.72;;;2.53;;
45338;SDS011;31071;51.478;5.710;2023-08-06T08:36:55;4.22;;;2.95;;
45338;SDS011;31071;51.478;5.710;2023-08-06T08:39:29;4.28;;;3.17;;
45338;SDS011;31071;51.478;5.710;2023-08-06T08:41:55;4.20;;;3.38;;
45338;SDS011;31071;51.478;5.710;2023-08-06T08:44:20;3.88;;;3.47;;
45338;SDS011;31071;51.478;5.710;2023-08-06T08:46:48;5.32;;;4.05;;
45338;SDS011;31071;51.478;5.710;2023-08-06T08:49:14;4.90;;;4.13;;
45338;SDS011;31071;51.478;5.710;2023-08-06T08:51:40;7.75;;;4.38;;
45338;SDS011;31071;51.478;5.710;2023-08-06T08:54:07;6.53;;;4.30;;
45338;SDS011;31071;51.478;5.710;2023-08-06T08:56:36;8.02;;;4.22;;
45338;SDS011;31071;51.478;5.710;2023-08-06T08:59:02;7.35;;;4.40;;
45338;SDS011;31071;51.478;5.710;2023-08-06T09:01:28;7.65;;;4.22;;
45338;SDS011;31071;51.478;5.710;2023-08-06T09:03:54;6.10;;;4.28;;
45338;SDS011;31071;51.478;5.710;2023-08-06T09:06:23;9.25;;;4.53;;
45338;SDS011;31071;51.478;5.710;2023-08-06T09:09:28;6.28;;;4.18;;
45338;SDS011;31071;51.478;5.710;2023-08-06T09:12:13;9.57;;;4.43;;
45338;SDS011;31071;51.478;5.710;2023-08-06T09:17:06;6.68;;;4.15;;
45338;SDS011;31071;51.478;5.710;2023-08-06T09:19:31;7.80;;;4.47;;
45338;SDS011;31071;51.478;5.710;2023-08-06T09:21:58;7.80;;;3.67;;
45338;SDS011;31071;51.478;5.710;2023-08-06T09:24:24;6.88;;;3.85;;
45338;SDS011;31071;51.478;5.710;2023-08-06T09:26:51;7.32;;;4.38;;
45338;SDS011;31071;51.478;5.710;2023-08-06T09:29:17;5.90;;;4.30;;
45338;SDS011;31071;51.478;5.710;2023-08-06T09:31:49;7.93;;;4.47;;
45338;SDS011;31071;51.478;5.710;2023-08-06T09:34:19;6.80;;;3.67;;
45338;SDS011;31071;51.478;5.710;2023-08-06T09:36:50;8.27;;;3.85;;
45338;SDS011;31071;51.478;5.710;2023-08-06T09:39:21;7.60;;;4.03;;
45338;SDS011;31071;51.478;5.710;2023-08-06T09:41:56;11.60;;;3.97;;
45338;SDS011;31071;51.478;5.710;2023-08-06T09:44:24;6.72;;;3.90;;
45338;SDS011;31071;51.478;5.710;2023-08-06T09:47:05;8.60;;;3.58;;
45338;SDS011;31071;51.478;5.710;2023-08-06T09:49:43;7.47;;;3.47;;
45338;SDS011;31071;51.478;5.710;2023-08-06T09:52:12;7.63;;;3.50;;
45338;SDS011;31071;51.478;5.710;2023-08-06T09:54:41;8.25;;;3.78;;
45338;SDS011;31071;51.478;5.710;2023-08-06T09:57:12;8.25;;;3.67;;
45338;SDS011;31071;51.478;5.710;2023-08-06T09:59:39;8.90;;;4.18;;
45338;SDS011;31071;51.478;5.710;2023-08-06T10:02:10;7.68;;;3.53;;
45338;SDS011;31071;51.478;5.710;2023-08-06T10:04:38;11.27;;;3.85;;
45338;SDS011;31071;51.478;5.710;2023-08-06T10:07:04;8.38;;;4.22;;
45338;SDS011;31071;51.478;5.710;2023-08-06T10:09:31;6.68;;;4.00;;
45338;SDS011;31071;51.478;5.710;2023-08-06T10:11:56;9.80;;;4.53;;
45338;SDS011;31071;51.478;5.710;2023-08-06T10:14:25;10.77;;;4.97;;
45338;SDS011;31071;51.478;5.710;2023-08-06T10:16:56;11.23;;;4.40;;
45338;SDS011;31071;51.478;5.710;2023-08-06T10:19:42;8.55;;;4.20;;
45338;SDS011;31071;51.478;5.710;2023-08-06T10:22:20;9.35;;;3.80;;
45338;SDS011;31071;51.478;5.710;2023-08-06T10:24:53;8.43;;;4.00;;
45338;SDS011;31071;51.478;5.710;2023-08-06T10:27:28;9.50;;;4.43;;
45338;SDS011;31071;51.478;5.710;2023-08-06T10:32:57;8.77;;;4.45;;
45338;SDS011;31071;51.478;5.710;2023-08-06T10:43:25;9.55;;;4.10;;
45338;SDS011;31071;51.478;5.710;2023-08-06T10:46:11;12.82;;;4.38;;
45338;SDS011;31071;51.478;5.710;2023-08-06T10:48:47;8.38;;;4.22;;
45338;SDS011;31071;51.478;5.710;2023-08-06T10:51:14;9.23;;;4.05;;
45338;SDS011;31071;51.478;5.710;2023-08-06T10:53:47;8.88;;;3.97;;
45338;SDS011;31071;51.478;5.710;2023-08-06T10:56:23;7.95;;;3.58;;
45338;SDS011;31071;51.478;5.710;2023-08-06T10:58:55;8.93;;;4.13;;
45338;SDS011;31071;51.478;5.710;2023-08-06T11:01:22;7.93;;;3.95;;
45338;SDS011;31071;51.478;5.710;2023-08-06T11:03:54;8.85;;;3.63;;
45338;SDS011;31071;51.478;5.710;2023-08-06T11:09:44;7.97;;;4.13;;
45338;SDS011;31071;51.478;5.710;2023-08-06T11:12:18;8.88;;;4.03;;
45338;SDS011;31071;51.478;5.710;2023-08-06T11:14:49;10.38;;;4.20;;
45338;SDS011;31071;51.478;5.710;2023-08-06T11:17:17;15.77;;;4.95;;
45338;SDS011;31071;51.478;5.710;2023-08-06T11:19:42;7.45;;;4.10;;
45338;SDS011;31071;51.478;5.710;2023-08-06T11:22:11;9.57;;;4.43;;
45338;SDS011;31071;51.478;5.710;2023-08-06T11:24:37;8.75;;;4.50;;
45338;SDS011;31071;51.478;5.710;2023-08-06T11:27:10;10.10;;;4.43;;
45338;SDS011;31071;51.478;5.710;2023-08-06T11:29:38;8.65;;;4.40;;
45338;SDS011;31071;51.478;5.710;2023-08-06T11:32:08;6.47;;;3.95;;
45338;SDS011;31071;51.478;5.710;2023-08-06T11:34:35;8.85;;;4.45;;
45338;SDS011;31071;51.478;5.710;2023-08-06T11:37:02;8.07;;;3.80;;
45338;SDS011;31071;51.478;5.710;2023-08-06T11:39:33;11.10;;;4.07;;
45338;SDS011;31071;51.478;5.710;2023-08-06T11:42:02;9.65;;;5.15;;
45338;SDS011;31071;51.478;5.710;2023-08-06T11:44:33;7.38;;;4.10;;
45338;SDS011;31071;51.478;5.710;2023-08-06T11:47:01;6.13;;;3.67;;
45338;SDS011;31071;51.478;5.710;2023-08-06T11:54:49;10.00;;;4.32;;
45338;SDS011;31071;51.478;5.710;2023-08-06T11:57:35;10.13;;;4.30;;
45338;SDS011;31071;51.478;5.710;2023-08-06T12:00:12;8.75;;;4.55;;
45338;SDS011;31071;51.478;5.710;2023-08-06T12:02:39;5.57;;;3.90;;
45338;SDS011;31071;51.478;5.710;2023-08-06T12:07:39;8.70;;;4.32;;
45338;SDS011;31071;51.478;5.710;2023-08-06T12:10:07;9.13;;;4.95;;
45338;SDS011;31071;51.478;5.710;2023-08-06T12:12:33;7.55;;;5.13;;
45338;SDS011;31071;51.478;5.710;2023-08-06T12:15:03;10.23;;;4.53;;
45338;SDS011;31071;51.478;5.710;2023-08-06T12:17:31;7.85;;;4.60;;
45338;SDS011;31071;51.478;5.710;2023-08-06T12:19:57;9.65;;;4.68;;
45338;SDS011;31071;51.478;5.710;2023-08-06T12:22:22;10.18;;;4.43;;
45338;SDS011;31071;51.478;5.710;2023-08-06T12:24:48;9.98;;;4.82;;
45338;SDS011;31071;51.478;5.710;2023-08-06T12:27:14;8.30;;;4.00;;
45338;SDS011;31071;51.478;5.710;2023-08-06T12:29:45;10.80;;;4.30;;
45338;SDS011;31071;51.478;5.710;2023-08-06T12:32:12;6.55;;;3.90;;
45338;SDS011;31071;51.478;5.710;2023-08-06T12:34:38;9.43;;;4.38;;
45338;SDS011;31071;51.478;5.710;2023-08-06T12:37:14;9.07;;;4.85;;
45338;SDS011;31071;51.478;5.710;2023-08-06T12:39:39;8.27;;;4.65;;
45338;SDS011;31071;51.478;5.710;2023-08-06T12:42:05;5.80;;;3.88;;
45338;SDS011;31071;51.478;5.710;2023-08-06T12:44:31;9.23;;;4.97;;
45338;SDS011;31071;51.478;5.710;2023-08-06T12:49:51;8.07;;;4.60;;
45338;SDS011;31071;51.478;5.710;2023-08-06T12:52:17;5.38;;;3.97;;
45338;SDS011;31071;51.478;5.710;2023-08-06T12:54:44;8.07;;;4.20;;
45338;SDS011;31071;51.478;5.710;2023-08-06T12:57:11;8.05;;;4.07;;
45338;SDS011;31071;51.478;5.710;2023-08-06T12:59:36;6.10;;;4.13;;
45338;SDS011;31071;51.478;5.710;2023-08-06T13:02:02;9.73;;;4.13;;
45338;SDS011;31071;51.478;5.710;2023-08-06T13:04:28;9.25;;;4.63;;
45338;SDS011;31071;51.478;5.710;2023-08-06T13:06:53;6.47;;;4.32;;
45338;SDS011;31071;51.478;5.710;2023-08-06T13:09:19;8.40;;;4.20;;
45338;SDS011;31071;51.478;5.710;2023-08-06T13:11:45;8.30;;;4.28;;
45338;SDS011;31071;51.478;5.710;2023-08-06T13:14:12;6.85;;;3.85;;
45338;SDS011;31071;51.478;5.710;2023-08-06T13:16:39;8.52;;;3.63;;
45338;SDS011;31071;51.478;5.710;2023-08-06T13:19:06;8.20;;;3.70;;
45338;SDS011;31071;51.478;5.710;2023-08-06T13:21:33;10.32;;;3.58;;
45338;SDS011;31071;51.478;5.710;2023-08-06T13:24:00;13.48;;;3.70;;
45338;SDS011;31071;51.478;5.710;2023-08-06T13:26:27;8.20;;;3.33;;
45338;SDS011;31071;51.478;5.710;2023-08-06T13:28:54;7.57;;;3.17;;
45338;SDS011;31071;51.478;5.710;2023-08-06T13:31:21;14.20;;;3.35;;
45338;SDS011;31071;51.478;5.710;2023-08-06T13:33:47;7.05;;;3.42;;
45338;SDS011;31071;51.478;5.710;2023-08-06T13:36:13;10.15;;;3.47;;
45338;SDS011;31071;51.478;5.710;2023-08-06T13:38:39;10.32;;;4.07;;
45338;SDS011;31071;51.478;5.710;2023-08-06T13:41:04;7.80;;;3.08;;
45338;SDS011;31071;51.478;5.710;2023-08-06T13:43:30;8.40;;;3.35;;
45338;SDS011;31071;51.478;5.710;2023-08-06T13:45:56;7.82;;;3.28;;
45338;SDS011;31071;51.478;5.710;2023-08-06T13:48:22;10.85;;;3.40;;
45338;SDS011;31071;51.478;5.710;2023-08-06T13:50:48;9.82;;;3.78;;
45338;SDS011;31071;51.478;5.710;2023-08-06T13:53:13;10.50;;;3.72;;
45338;SDS011;31071;51.478;5.710;2023-08-06T13:55:41;12.38;;;3.85;;
45338;SDS011;31071;51.478;5.710;2023-08-06T13:58:07;15.00;;;4.70;;
45338;SDS011;31071;51.478;5.710;2023-08-06T14:00:33;8.75;;;4.47;;
45338;SDS011;31071;51.478;5.710;2023-08-06T14:03:00;8.57;;;3.80;;
45338;SDS011;31071;51.478;5.710;2023-08-06T14:05:26;7.47;;;3.75;;
45338;SDS011;31071;51.478;5.710;2023-08-06T14:07:51;10.70;;;3.95;;
45338;SDS011;31071;51.478;5.710;2023-08-06T14:10:17;11.40;;;3.67;;
45338;SDS011;31071;51.478;5.710;2023-08-06T14:12:45;10.10;;;3.30;;
45338;SDS011;31071;51.478;5.710;2023-08-06T14:15:11;11.18;;;2.83;;
45338;SDS011;31071;51.478;5.710;2023-08-06T14:17:37;9.30;;;2.28;;
45338;SDS011;31071;51.478;5.710;2023-08-06T14:20:03;9.75;;;2.40;;
45338;SDS011;31071;51.478;5.710;2023-08-06T14:22:29;11.50;;;2.97;;
45338;SDS011;31071;51.478;5.710;2023-08-06T14:24:56;7.55;;;2.55;;
45338;SDS011;31071;51.478;5.710;2023-08-06T14:27:22;10.60;;;3.00;;
45338;SDS011;31071;51.478;5.710;2023-08-06T14:29:48;15.02;;;2.83;;
45338;SDS011;31071;51.478;5.710;2023-08-06T14:32:14;9.23;;;2.97;;
45338;SDS011;31071;51.478;5.710;2023-08-06T14:34:42;7.30;;;2.85;;
45338;SDS011;31071;51.478;5.710;2023-08-06T14:37:08;13.25;;;3.22;;
45338;SDS011;31071;51.478;5.710;2023-08-06T14:39:34;8.00;;;3.20;;
45338;SDS011;31071;51.478;5.710;2023-08-06T14:41:59;7.28;;;3.20;;
45338;SDS011;31071;51.478;5.710;2023-08-06T14:44:25;6.32;;;3.20;;
45338;SDS011;31071;51.478;5.710;2023-08-06T14:46:51;12.20;;;3.80;;
45338;SDS011;31071;51.478;5.710;2023-08-06T14:49:16;11.57;;;3.40;;
45338;SDS011;31071;51.478;5.710;2023-08-06T14:51:42;14.05;;;3.25;;
45338;SDS011;31071;51.478;5.710;2023-08-06T14:54:07;8.70;;;3.40;;
45338;SDS011;31071;51.478;5.710;2023-08-06T14:56:33;6.28;;;3.10;;
45338;SDS011;31071;51.478;5.710;2023-08-06T14:58:58;7.03;;;2.72;;
45338;SDS011;31071;51.478;5.710;2023-08-06T15:01:24;8.45;;;3.13;;
45338;SDS011;31071;51.478;5.710;2023-08-06T15:03:49;5.18;;;1.60;;
45338;SDS011;31071;51.478;5.710;2023-08-06T15:06:15;6.45;;;2.45;;
45338;SDS011;31071;51.478;5.710;2023-08-06T15:08:41;9.75;;;2.20;;
45338;SDS011;31071;51.478;5.710;2023-08-06T15:11:09;7.30;;;2.38;;
45338;SDS011;31071;51.478;5.710;2023-08-06T15:13:34;5.68;;;2.42;;
45338;SDS011;31071;51.478;5.710;2023-08-06T15:16:00;4.13;;;1.95;;